Time;durP1;ratioP1;P1;durP2;ratioP2;P2;SDS_P1;SDS_P2;PMS_P1;PMS_P2;Temp;Humidity;BMP_temperature;BMP_pressure;BME280_temperature;BME280_humidity;BME280_pressure;Samples;Min_cycle;Max_cycle;Signal;HPM_P1;HPM_P2
2022/04/20 00:02:16;;;;;;;6.57;3.93;;;;;;;7.82;65.89;95982.88;4997427;28;20208;-67
2022/04/20 00:04:43;;;;;;;9.40;3.80;;;;;;;7.76;64.82;95977.50;4997895;28;20579;-68
2022/04/20 00:07:10;;;;;;;11.23;3.70;;;;;;;7.72;65.11;95974.38;4997230;28;20268;-68
2022/04/20 00:09:37;;;;;;;6.90;3.37;;;;;;;7.42;65.25;95982.09;4996401;28;21014;-67
2022/04/20 00:12:04;;;;;;;6.43;3.63;;;;;;;7.39;66.33;95979.81;4996469;28;20225;-67
2022/04/20 00:14:30;;;;;;;5.10;3.60;;;;;;;6.83;67.93;95976.31;4996027;28;20198;-67
2022/04/20 00:16:57;;;;;;;8.97;4.30;;;;;;;7.23;67.46;95971.94;4995869;28;20582;-67
2022/04/20 00:19:23;;;;;;;5.00;3.40;;;;;;;7.30;67.37;95965.88;4995362;28;21014;-67
2022/04/20 00:21:50;;;;;;;7.00;3.70;;;;;;;7.12;67.60;95960.97;4995226;28;20421;-68
2022/04/20 00:24:17;;;;;;;6.53;3.63;;;;;;;7.36;67.43;95975.72;4995383;28;20203;-67
2022/04/20 00:26:44;;;;;;;6.23;3.60;;;;;;;7.24;67.40;95970.13;4995638;28;20203;-67
2022/04/20 00:29:10;;;;;;;5.70;3.50;;;;;;;7.18;66.95;95974.25;4994680;28;20237;-67
2022/04/20 00:31:37;;;;;;;6.70;3.60;;;;;;;7.13;67.27;95975.69;4995557;28;21165;-68
2022/04/20 00:34:03;;;;;;;5.83;3.80;;;;;;;6.86;67.98;95968.13;4994719;28;20852;-67
2022/04/20 00:36:30;;;;;;;7.10;3.47;;;;;;;6.81;67.07;95966.00;4995226;28;20203;-67
2022/04/20 00:38:56;;;;;;;5.73;3.73;;;;;;;6.74;67.26;95972.84;4995786;28;20219;-67
2022/04/20 00:41:24;;;;;;;6.17;3.70;;;;;;;6.86;67.36;95965.50;4995326;28;20203;-67
2022/04/20 00:43:51;;;;;;;7.10;3.40;;;;;;;6.63;66.64;95972.31;4994265;28;20209;-67
2022/04/20 00:46:20;;;;;;;4.40;2.90;;;;;;;6.44;66.17;95967.38;4996016;28;20217;-67
2022/04/20 00:48:46;;;;;;;5.70;3.13;;;;;;;6.13;67.79;95961.00;4995219;28;21102;-67
2022/04/20 00:51:13;;;;;;;6.50;3.37;;;;;;;5.75;70.39;95958.03;4994882;28;20233;-67
2022/04/20 00:53:39;;;;;;;6.30;3.70;;;;;;;5.55;73.39;95947.94;4994594;28;20202;-67
2022/04/20 00:56:06;;;;;;;4.53;3.47;;;;;;;5.75;73.12;95944.97;4995731;28;20214;-67
2022/04/20 00:58:35;;;;;;;6.27;3.43;;;;;;;5.91;71.88;95950.28;4995114;28;20253;-67
2022/04/20 01:01:02;;;;;;;6.43;3.17;;;;;;;6.04;69.08;95941.03;4994915;28;20683;-67
2022/04/20 01:03:28;;;;;;;5.40;2.90;;;;;;;5.64;69.30;95944.41;4993932;28;20199;-67
2022/04/20 01:05:55;;;;;;;5.27;2.80;;;;;;;5.73;70.32;95940.84;4994933;28;20738;-67
2022/04/20 01:08:21;;;;;;;5.73;3.17;;;;;;;5.74;70.43;95945.94;4994650;28;20730;-67
2022/04/20 01:10:48;;;;;;;6.27;3.20;;;;;;;5.66;71.52;95950.28;4994619;28;20202;-67
2022/04/20 01:13:14;;;;;;;4.60;3.20;;;;;;;5.68;72.18;95945.72;4994292;28;20673;-67
2022/04/20 01:15:43;;;;;;;5.93;3.17;;;;;;;6.00;70.75;95944.13;4995143;28;20215;-67
2022/04/20 01:18:14;;;;;;;7.10;3.30;;;;;;;6.11;70.27;95939.44;4994849;28;20245;-67
2022/04/20 01:20:42;;;;;;;6.07;3.30;;;;;;;5.98;71.54;95940.03;4995149;28;20208;-67
2022/04/20 01:23:10;;;;;;;6.93;3.43;;;;;;;5.69;72.08;95945.56;4994248;28;20663;-67
2022/04/20 01:25:37;;;;;;;10.53;3.53;;;;;;;5.76;71.92;95943.19;4995249;28;20629;-68
2022/04/20 01:28:04;;;;;;;5.47;3.40;;;;;;;5.86;70.85;95941.28;4994272;28;20234;-67
2022/04/20 01:30:30;;;;;;;7.50;3.60;;;;;;;5.59;70.52;95938.81;4994859;28;20226;-68
2022/04/20 01:33:00;;;;;;;12.63;3.57;;;;;;;5.63;70.41;95934.91;4993647;28;20314;-67
2022/04/20 01:35:26;;;;;;;6.10;3.50;;;;;;;5.36;71.00;95936.84;4994739;28;20230;-67
2022/04/20 01:37:54;;;;;;;7.63;3.13;;;;;;;5.50;72.68;95934.50;4994215;28;20229;-68
2022/04/20 01:40:20;;;;;;;4.93;3.40;;;;;;;5.43;72.96;95933.47;4994619;28;20929;-67
2022/04/20 01:42:47;;;;;;;7.03;3.70;;;;;;;5.46;73.34;95939.22;4994159;28;20562;-67
2022/04/20 01:45:13;;;;;;;5.40;3.33;;;;;;;5.43;73.75;95933.47;4994618;28;20209;-68
2022/04/20 01:47:40;;;;;;;7.33;4.03;;;;;;;5.39;74.42;95921.69;4994001;28;20218;-67
2022/04/20 01:50:07;;;;;;;8.73;3.93;;;;;;;5.57;75.08;95919.84;4994712;28;20210;-67
2022/04/20 01:52:34;;;;;;;8.60;3.83;;;;;;;5.44;75.75;95928.09;4993470;28;20695;-67
2022/04/20 01:55:02;;;;;;;9.40;4.30;;;;;;;5.56;75.65;95923.41;4994349;28;20198;-68
2022/04/20 01:57:29;;;;;;;6.23;3.90;;;;;;;5.42;73.55;95926.59;4994766;28;20658;-67
2022/04/20 01:59:55;;;;;;;19.13;4.03;;;;;;;5.46;73.57;95922.72;4994853;28;20871;-68
2022/04/20 02:02:37;;;;;;;7.13;4.10;;;;;;;5.50;73.91;95921.44;4993449;28;20288;-68
2022/04/20 02:05:05;;;;;;;8.07;4.53;;;;;;;5.57;76.29;95917.22;4993698;28;20242;-67
2022/04/20 02:07:32;;;;;;;10.87;5.40;;;;;;;5.49;75.84;95927.63;4994387;28;20211;-67
2022/04/20 02:09:58;;;;;;;5.57;3.70;;;;;;;5.15;75.29;95920.69;4993975;28;20226;-68
2022/04/20 02:12:26;;;;;;;9.10;4.73;;;;;;;5.48;74.48;95926.00;4992870;28;20608;-67
2022/04/20 02:14:53;;;;;;;8.57;4.50;;;;;;;5.45;74.30;95924.50;4993971;28;20675;-66
2022/04/20 02:17:20;;;;;;;6.30;4.00;;;;;;;5.32;75.29;95920.66;4994543;28;20221;-67
2022/04/20 02:19:47;;;;;;;8.70;4.70;;;;;;;5.38;74.41;95919.22;4994846;28;20203;-67
2022/04/20 02:22:13;;;;;;;6.57;3.87;;;;;;;5.18;72.41;95923.84;4990997;28;20203;-67
2022/04/20 02:24:40;;;;;;;7.10;4.17;;;;;;;5.05;73.86;95922.56;4994065;28;20206;-67
2022/04/20 02:27:08;;;;;;;8.77;3.70;;;;;;;5.08;75.63;95919.69;4994316;28;20210;-66
2022/04/20 02:29:36;;;;;;;8.23;4.57;;;;;;;5.34;75.75;95918.72;4994374;28;20222;-67
2022/04/20 02:32:03;;;;;;;8.63;4.87;;;;;;;5.18;75.66;95921.22;4994245;28;20235;-67
2022/04/20 02:34:29;;;;;;;7.70;4.37;;;;;;;5.07;75.04;95921.44;4993232;28;20210;-67
2022/04/20 02:36:56;;;;;;;10.63;4.13;;;;;;;4.66;74.60;95923.03;4993757;28;20202;-68
2022/04/20 02:39:23;;;;;;;10.33;4.93;;;;;;;4.63;77.47;95921.53;4996152;28;20237;-67
2022/04/20 02:41:49;;;;;;;14.37;5.50;;;;;;;4.54;80.10;95919.00;4997171;28;20221;-67
2022/04/20 02:44:16;;;;;;;7.43;4.33;;;;;;;4.29;81.75;95912.72;4996271;28;20203;-67
2022/04/20 02:46:44;;;;;;;10.03;4.93;;;;;;;4.64;81.12;95911.94;4997326;28;20659;-67
2022/04/20 02:49:12;;;;;;;10.90;5.27;;;;;;;4.53;82.06;95910.38;4996768;28;20226;-67
2022/04/20 02:51:38;;;;;;;8.33;4.77;;;;;;;4.41;83.04;95913.34;4996852;28;20601;-67
2022/04/20 02:54:04;;;;;;;10.10;5.70;;;;;;;4.47;82.56;95913.56;4996514;28;20846;-67
2022/04/20 02:56:31;;;;;;;6.67;4.40;;;;;;;4.69;81.99;95915.72;4997029;28;20202;-67
2022/04/20 02:58:57;;;;;;;8.63;4.93;;;;;;;4.75;82.14;95919.53;4996316;28;20240;-67
2022/04/20 03:01:24;;;;;;;11.23;5.63;;;;;;;4.74;82.07;95913.50;4996987;28;20213;-67
2022/04/20 03:03:52;;;;;;;8.37;4.70;;;;;;;5.00;82.29;95912.59;4996215;28;20294;-66
2022/04/20 03:06:18;;;;;;;9.13;5.30;;;;;;;4.88;81.71;95924.22;4996537;28;20198;-67
2022/04/20 03:08:46;;;;;;;11.00;5.70;;;;;;;4.95;81.05;95924.44;4996647;28;20327;-67
2022/04/20 03:11:12;;;;;;;11.57;5.40;;;;;;;4.82;81.75;95921.41;4997214;28;20218;-67
2022/04/20 03:13:39;;;;;;;12.10;5.77;;;;;;;4.94;81.04;95915.78;4995565;28;20580;-67
2022/04/20 03:16:05;;;;;;;8.30;4.97;;;;;;;4.98;80.34;95922.34;4995282;28;20199;-67
2022/04/20 03:18:32;;;;;;;9.83;5.73;;;;;;;4.97;80.54;95920.72;4995924;28;20237;-67
2022/04/20 03:21:00;;;;;;;9.23;4.50;;;;;;;4.99;80.19;95923.16;4995459;28;20203;-67
2022/04/20 03:23:27;;;;;;;7.90;4.47;;;;;;;4.97;79.29;95923.31;4994655;28;20229;-66
2022/04/20 03:25:53;;;;;;;9.47;5.17;;;;;;;4.97;78.84;95928.53;4995894;28;20202;-67
2022/04/20 03:28:20;;;;;;;9.17;5.33;;;;;;;5.03;79.26;95925.34;4995648;28;20226;-67
2022/04/20 03:30:47;;;;;;;8.90;5.07;;;;;;;4.88;79.19;95931.25;4995488;28;20531;-67
2022/04/20 03:33:14;;;;;;;8.70;5.23;;;;;;;4.98;78.81;95927.56;4994895;28;20237;-67
2022/04/20 03:35:41;;;;;;;7.87;4.50;;;;;;;5.05;78.72;95928.63;4995673;28;20206;-67
2022/04/20 03:38:10;;;;;;;11.10;5.57;;;;;;;5.31;77.92;95932.09;4995417;28;20579;-67
2022/04/20 03:40:37;;;;;;;9.00;5.13;;;;;;;5.07;77.92;95931.09;4995575;28;20254;-67
2022/04/20 03:43:04;;;;;;;10.53;5.30;;;;;;;5.05;77.39;95933.00;4994524;28;20682;-67
2022/04/20 03:45:30;;;;;;;10.83;5.67;;;;;;;5.07;77.33;95928.47;4995586;28;20667;-66
2022/04/20 03:47:57;;;;;;;14.97;5.93;;;;;;;5.00;77.67;95933.47;4995432;28;20219;-67
2022/04/20 03:50:23;;;;;;;10.67;5.53;;;;;;;4.90;78.12;95924.06;4994936;28;20202;-67
2022/04/20 03:52:50;;;;;;;10.93;5.47;;;;;;;4.88;76.38;95926.84;4994304;28;20241;-66
2022/04/20 03:55:18;;;;;;;8.87;4.60;;;;;;;4.96;76.10;95929.53;4995439;28;20207;-66
2022/04/20 03:57:44;;;;;;;9.33;5.37;;;;;;;4.70;75.90;95925.22;4995142;28;20505;-66
2022/04/20 04:00:12;;;;;;;9.37;4.30;;;;;;;4.75;77.18;95929.97;4994883;28;20543;-67
2022/04/20 04:02:38;;;;;;;15.67;4.63;;;;;;;4.59;78.32;95929.81;4994482;28;20617;-67
2022/04/20 04:05:06;;;;;;;7.67;3.97;;;;;;;4.58;76.35;95931.63;4995449;28;20195;-66
2022/04/20 04:07:32;;;;;;;10.10;4.50;;;;;;;4.40;75.46;95932.56;4994868;28;20210;-67
2022/04/20 04:09:59;;;;;;;8.13;4.50;;;;;;;4.37;77.43;95938.09;4994825;28;20510;-67
2022/04/20 04:12:27;;;;;;;11.37;4.30;;;;;;;4.55;78.16;95928.47;4994279;28;20226;-66
2022/04/20 04:14:53;;;;;;;8.33;4.77;;;;;;;4.52;78.29;95933.97;4994736;28;20558;-67
2022/04/20 04:17:20;;;;;;;9.03;5.20;;;;;;;4.59;78.45;95935.84;4994977;28;20210;-67
2022/04/20 04:19:47;;;;;;;7.67;4.63;;;;;;;4.57;78.17;95935.19;4995493;28;20214;-67
2022/04/20 04:22:13;;;;;;;11.00;5.13;;;;;;;4.47;78.05;95936.25;4993915;28;20664;-66
2022/04/20 04:24:40;;;;;;;6.87;4.40;;;;;;;4.42;79.20;95949.72;4994759;28;20486;-66
2022/04/20 04:27:08;;;;;;;9.57;5.17;;;;;;;4.68;79.30;95944.59;4995408;28;20199;-67
2022/04/20 04:29:37;;;;;;;10.60;5.03;;;;;;;4.95;78.83;95954.00;4994677;28;20226;-67
2022/04/20 04:32:05;;;;;;;7.87;4.30;;;;;;;4.79;78.75;95952.22;4994351;28;20775;-66
2022/04/20 04:34:32;;;;;;;8.37;4.47;;;;;;;4.79;78.56;95953.03;4994123;28;20590;-67
2022/04/20 04:36:59;;;;;;;8.13;4.53;;;;;;;4.87;78.55;95958.31;4994157;28;21190;-67
2022/04/20 04:39:28;;;;;;;8.67;5.60;;;;;;;4.79;79.79;95955.63;4994470;28;20718;-67
2022/04/20 04:41:56;;;;;;;8.07;4.83;;;;;;;4.87;78.50;95960.91;4994708;28;20503;-67
2022/04/20 04:44:23;;;;;;;9.30;4.90;;;;;;;4.84;78.75;95954.22;4993868;28;20207;-67
2022/04/20 04:49:35;;;;;;;11.00;6.07;;;;;;;4.62;79.99;95950.41;4994897;28;20234;-67
2022/04/20 04:52:02;;;;;;;15.43;8.25;;;;;;;4.27;82.63;95953.75;4993422;28;20459;-66
2022/04/20 04:54:28;;;;;;;10.37;6.20;;;;;;;4.45;82.13;95953.81;4994431;28;20230;-66
2022/04/20 04:56:55;;;;;;;9.93;5.37;;;;;;;4.54;82.26;95947.72;4995278;28;20750;-66
2022/04/20 04:59:21;;;;;;;10.20;4.97;;;;;;;4.35;83.24;95947.81;4994588;28;20226;-67
2022/04/20 05:01:48;;;;;;;11.27;5.23;;;;;;;4.68;82.45;95944.59;4993850;28;20203;-67
2022/04/20 05:04:16;;;;;;;13.57;5.07;;;;;;;4.78;82.83;95943.53;4993995;28;20214;-66
2022/04/20 05:06:44;;;;;;;18.37;5.17;;;;;;;4.67;82.98;95942.94;4994688;28;20199;-67
2022/04/20 05:09:10;;;;;;;10.23;5.40;;;;;;;4.71;82.86;95939.91;4994319;28;20283;-67
2022/04/20 05:11:37;;;;;;;9.97;5.43;;;;;;;4.77;83.11;95949.72;4994984;28;20194;-66
2022/04/20 05:14:03;;;;;;;13.03;5.27;;;;;;;4.85;82.86;95948.03;4993701;28;20234;-67
2022/04/20 05:16:30;;;;;;;7.93;4.60;;;;;;;4.71;82.76;95946.91;4994802;28;20211;-67
2022/04/20 05:18:56;;;;;;;10.30;5.20;;;;;;;5.00;82.17;95953.53;4994293;28;20242;-67
2022/04/20 05:21:24;;;;;;;10.20;4.73;;;;;;;5.46;81.54;95943.63;4993097;28;20206;-66
2022/04/20 05:23:51;;;;;;;11.73;5.20;;;;;;;5.33;80.59;95950.22;4993959;28;20194;-67
2022/04/20 05:26:17;;;;;;;9.40;5.20;;;;;;;5.43;80.19;95944.75;4994790;28;20214;-67
2022/04/20 05:28:43;;;;;;;8.57;4.33;;;;;;;5.58;80.15;95947.63;4994531;28;20230;-66
2022/04/20 05:31:10;;;;;;;9.53;4.87;;;;;;;5.63;79.45;95946.16;4994176;28;20202;-67
2022/04/20 05:33:36;;;;;;;13.77;5.23;;;;;;;5.86;78.63;95951.75;4993907;28;20237;-66
2022/04/20 05:36:03;;;;;;;8.90;5.50;;;;;;;5.70;78.96;95956.84;4994701;28;20207;-66
2022/04/20 05:41:40;;;;;;;8.90;4.57;;;;;;;5.91;78.64;95960.75;4993676;28;20216;-67
2022/04/20 05:44:07;;;;;;;10.83;5.30;;;;;;;6.21;77.32;95963.69;4993859;28;20198;-67
2022/04/20 05:46:33;;;;;;;10.40;4.90;;;;;;;6.17;77.47;95962.38;4993776;28;20217;-67
2022/04/20 05:49:00;;;;;;;10.00;5.30;;;;;;;6.08;77.96;95965.06;4993845;28;20233;-67
2022/04/20 05:51:26;;;;;;;11.87;5.80;;;;;;;6.21;77.38;95968.06;4994491;28;20207;-66
2022/04/20 05:53:54;;;;;;;9.37;5.17;;;;;;;6.24;76.99;95971.22;4993314;28;20218;-67
2022/04/20 05:56:20;;;;;;;10.27;5.07;;;;;;;6.19;76.89;95977.91;4993876;28;20211;-66
2022/04/20 05:58:50;;;;;;;11.30;5.27;;;;;;;6.27;76.67;95970.88;4993869;28;20237;-67
2022/04/20 06:01:17;;;;;;;8.53;4.53;;;;;;;6.41;76.94;95975.53;4992015;28;20210;-67
2022/04/20 06:03:45;;;;;;;11.07;5.17;;;;;;;6.43;77.08;95978.81;4992391;28;20289;-66
2022/04/20 06:06:12;;;;;;;8.00;4.53;;;;;;;6.24;77.11;95973.81;4993570;28;20238;-67
2022/04/20 06:08:38;;;;;;;11.17;5.20;;;;;;;6.39;76.03;95968.81;4994558;28;20230;-66
2022/04/20 06:11:06;;;;;;;9.73;5.23;;;;;;;6.43;77.60;95963.09;4993706;28;20223;-66
2022/04/20 06:13:33;;;;;;;11.53;5.70;;;;;;;6.63;77.66;95964.47;4995098;28;20245;-67
2022/04/20 06:16:00;;;;;;;11.00;5.10;;;;;;;6.57;76.65;95980.00;4997265;28;20322;-67
2022/04/20 06:18:26;;;;;;;8.30;4.87;;;;;;;6.53;77.12;95974.28;4998062;28;20743;-66
2022/04/20 06:20:53;;;;;;;9.50;4.80;;;;;;;6.45;76.76;95976.03;4996431;28;20679;-66
2022/04/20 06:23:22;;;;;;;10.57;5.47;;;;;;;6.61;75.81;95976.91;4995018;28;20206;-67
2022/04/20 06:25:49;;;;;;;10.73;5.60;;;;;;;6.74;75.99;95966.78;4994739;28;20206;-67
2022/04/20 06:28:16;;;;;;;9.33;4.57;;;;;;;7.15;74.71;95969.31;4996898;28;20223;-66
2022/04/20 06:30:43;;;;;;;12.50;5.17;;;;;;;7.04;75.83;95971.41;4996753;28;20203;-67
2022/04/20 06:33:09;;;;;;;8.93;5.07;;;;;;;6.99;75.14;95965.88;4996149;28;20234;-67
2022/04/20 06:35:36;;;;;;;11.00;5.43;;;;;;;6.91;74.56;95968.47;4996242;28;20207;-66
2022/04/20 06:38:02;;;;;;;8.33;4.93;;;;;;;7.13;75.09;95967.81;4995843;28;20233;-67
2022/04/20 06:40:29;;;;;;;13.27;6.00;;;;;;;7.07;74.33;95973.72;4997159;28;20206;-66
2022/04/20 06:42:55;;;;;;;10.27;5.27;;;;;;;7.24;74.21;95968.31;4995939;28;20202;-67
2022/04/20 06:45:23;;;;;;;9.43;4.80;;;;;;;7.42;73.94;95963.75;4996648;28;20214;-66
2022/04/20 06:47:50;;;;;;;11.07;5.00;;;;;;;7.42;72.03;95969.81;4997004;28;20222;-67
2022/04/20 06:50:16;;;;;;;7.27;4.23;;;;;;;7.30;73.33;95960.63;4996085;28;20206;-67
2022/04/20 07:00:56;;;;;;;10.37;4.53;;;;;;;7.83;70.03;95960.09;4996325;28;20259;-67
2022/04/20 07:03:23;;;;;;;8.07;4.67;;;;;;;7.74;69.68;95958.47;4995317;28;20201;-67
2022/04/20 07:05:49;;;;;;;10.90;4.90;;;;;;;7.86;70.29;95957.16;4995664;28;20206;-66
2022/04/20 07:08:16;;;;;;;12.13;5.03;;;;;;;7.66;70.96;95954.06;4995173;28;20222;-66
2022/04/20 07:10:42;;;;;;;15.27;4.93;;;;;;;7.83;70.33;95947.81;4996408;28;20605;-67
2022/04/20 07:13:09;;;;;;;11.40;4.87;;;;;;;7.93;68.93;95945.81;4995850;28;20241;-67
2022/04/20 07:15:35;;;;;;;11.30;5.03;;;;;;;7.86;70.82;95949.28;4995726;28;20288;-67
2022/04/20 07:18:05;;;;;;;8.83;4.77;;;;;;;8.40;71.04;95946.66;4995366;28;20234;-67
2022/04/20 07:20:31;;;;;;;9.83;4.80;;;;;;;8.00;68.48;95941.53;4996497;28;20264;-67
2022/04/20 07:22:58;;;;;;;10.77;5.60;;;;;;;8.18;70.10;95947.41;4995909;28;20914;-67
2022/04/20 07:25:25;;;;;;;12.83;5.23;;;;;;;8.48;67.63;95949.25;4995452;28;20584;-67
2022/04/20 07:27:52;;;;;;;9.97;4.90;;;;;;;8.62;67.95;95950.16;4996421;28;20230;-66
2022/04/20 07:30:19;;;;;;;13.83;4.93;;;;;;;8.61;64.75;95939.84;4996542;28;20572;-67
2022/04/20 07:32:47;;;;;;;10.77;4.93;;;;;;;8.73;66.13;95944.53;4995036;28;20871;-67
2022/04/20 07:35:15;;;;;;;8.60;4.83;;;;;;;8.80;65.25;95944.66;4996459;28;20205;-66
2022/04/20 07:37:41;;;;;;;9.00;4.33;;;;;;;8.68;65.08;95940.78;4997402;28;20237;-68
2022/04/20 07:40:08;;;;;;;7.00;4.10;;;;;;;8.84;65.32;95938.06;4996244;28;20207;-66
2022/04/20 07:42:36;;;;;;;10.47;4.03;;;;;;;8.92;63.65;95936.19;4995752;28;20203;-67
2022/04/20 07:45:02;;;;;;;9.67;4.63;;;;;;;8.99;63.99;95941.59;4992033;28;20203;-67
2022/04/20 07:47:29;;;;;;;7.30;4.23;;;;;;;9.07;63.78;95944.97;4995160;28;20942;-68
2022/04/20 07:52:43;;;;;;;10.37;4.07;;;;;;;9.15;62.67;95942.28;4994376;28;20249;-66
2022/04/20 07:55:10;;;;;;;6.93;4.10;;;;;;;8.83;61.91;95941.69;4994758;28;21071;-67
2022/04/20 07:57:38;;;;;;;7.77;4.07;;;;;;;9.18;60.78;95936.69;4994666;28;20572;-67
2022/04/20 08:00:05;;;;;;;8.53;4.00;;;;;;;9.36;60.49;95931.94;4995508;28;20213;-66
2022/04/20 08:02:32;;;;;;;6.00;3.43;;;;;;;9.65;58.94;95926.72;4994238;28;20207;-67
2022/04/20 08:04:58;;;;;;;7.47;3.63;;;;;;;9.16;59.92;95934.25;4995250;28;20195;-67
2022/04/20 08:07:26;;;;;;;7.80;3.67;;;;;;;9.79;58.83;95937.31;4995504;28;20211;-67
2022/04/20 08:09:54;;;;;;;5.27;3.30;;;;;;;10.06;56.39;95932.25;4995247;28;20857;-67
2022/04/20 08:12:21;;;;;;;9.23;4.00;;;;;;;10.08;57.75;95937.34;4993633;28;20573;-67
2022/04/20 08:14:47;;;;;;;5.10;2.97;;;;;;;10.14;56.89;95932.16;4995480;28;20226;-67
2022/04/20 08:17:14;;;;;;;6.10;3.93;;;;;;;10.24;57.01;95934.53;4994380;28;20211;-67
2022/04/20 08:19:40;;;;;;;6.47;3.90;;;;;;;10.38;55.18;95937.97;4994716;28;20222;-66
2022/04/20 08:22:07;;;;;;;5.47;3.07;;;;;;;10.45;54.88;95933.63;4994259;28;20199;-67
2022/04/20 08:24:34;;;;;;;6.37;3.77;;;;;;;10.27;57.96;95934.97;4993599;28;20207;-67
2022/04/20 08:27:02;;;;;;;8.07;4.00;;;;;;;10.52;58.25;95938.97;4994472;28;20210;-67
2022/04/20 08:29:28;;;;;;;5.53;3.33;;;;;;;10.79;56.81;95925.09;4993667;28;20319;-67
2022/04/20 08:31:55;;;;;;;11.63;4.00;;;;;;;10.86;55.76;95932.09;4993684;28;20198;-67
2022/04/20 08:34:21;;;;;;;6.53;3.50;;;;;;;10.90;57.16;95919.38;4993023;28;20230;-67
2022/04/20 08:36:48;;;;;;;5.40;3.47;;;;;;;10.86;55.17;95926.81;4992842;28;20528;-66
2022/04/20 08:39:14;;;;;;;6.10;2.90;;;;;;;10.12;52.87;95926.28;4993277;28;20507;-67
2022/04/20 08:41:42;;;;;;;4.40;2.77;;;;;;;10.62;54.02;95928.97;4993862;28;20199;-67
2022/04/20 08:44:14;;;;;;;7.43;3.53;;;;;;;11.15;54.03;95930.19;4992336;28;20198;-67
2022/04/20 08:46:43;;;;;;;5.53;3.17;;;;;;;11.39;53.70;95927.16;4995066;28;20539;-67
2022/04/20 08:49:10;;;;;;;6.97;2.97;;;;;;;11.27;52.35;95931.31;4993163;28;20223;-67
2022/04/20 08:54:17;;;;;;;5.87;3.07;;;;;;;11.48;52.81;95923.41;4992637;28;20706;-67
2022/04/20 08:59:29;;;;;;;6.53;3.57;;;;;;;11.75;52.40;95912.06;4985048;28;20222;-67
2022/04/20 09:01:58;;;;;;;9.50;3.40;;;;;;;12.02;51.39;95911.25;4993610;28;20387;-67
2022/04/20 09:04:25;;;;;;;5.53;3.37;;;;;;;11.92;52.99;95910.78;4992345;28;20691;-67
2022/04/20 09:06:52;;;;;;;5.93;3.33;;;;;;;11.88;52.02;95905.06;4993552;28;20203;-67
2022/04/20 09:09:19;;;;;;;6.60;3.40;;;;;;;11.80;53.05;95914.94;4993346;28;20233;-67
2022/04/20 09:11:47;;;;;;;6.10;3.27;;;;;;;11.45;51.77;95912.41;4993273;28;20264;-67
2022/04/20 09:14:15;;;;;;;7.47;3.53;;;;;;;11.85;51.08;95910.72;4992530;28;20287;-67
2022/04/20 09:16:44;;;;;;;7.03;3.00;;;;;;;11.82;49.91;95911.09;4993385;28;20198;-67
2022/04/20 09:19:11;;;;;;;5.63;2.90;;;;;;;11.35;55.89;95923.25;4993995;28;20230;-67
2022/04/20 09:21:38;;;;;;;5.90;3.63;;;;;;;11.69;52.59;95910.19;4993877;28;20203;-67
2022/04/20 09:24:06;;;;;;;6.13;3.10;;;;;;;12.00;52.71;95919.34;4993576;28;20199;-67
2022/04/20 09:26:33;;;;;;;8.27;3.50;;;;;;;12.18;50.40;95911.72;4993844;28;20207;-68
2022/04/20 09:29:06;;;;;;;6.33;4.13;;;;;;;12.52;52.44;95909.88;4993139;28;20215;-68
2022/04/20 09:31:44;;;;;;;5.47;2.83;;;;;;;11.81;49.96;95906.00;4992966;28;20693;-68
2022/04/20 09:34:32;;;;;;;6.07;4.00;;;;;;;12.17;52.61;95897.72;4993127;28;20223;-67
2022/04/20 09:36:59;;;;;;;5.83;3.33;;;;;;;12.21;50.45;95906.88;4993215;28;20203;-67
2022/04/20 09:39:31;;;;;;;6.20;3.80;;;;;;;12.56;49.77;95899.75;4993203;28;20248;-67
2022/04/20 09:41:59;;;;;;;7.40;3.83;;;;;;;12.33;49.33;95901.88;4993154;28;20206;-67
2022/04/20 09:44:27;;;;;;;6.07;3.60;;;;;;;12.61;49.02;95892.84;4993092;28;21135;-67
2022/04/20 09:49:53;;;;;;;6.03;3.80;;;;;;;13.07;51.41;95894.66;4996469;28;20697;-68
2022/04/20 09:52:19;;;;;;;6.23;3.80;;;;;;;13.34;47.89;95884.91;4995677;28;20218;-68
2022/04/20 09:54:53;;;;;;;6.43;3.53;;;;;;;13.05;45.94;95887.94;4996536;28;20234;-67
2022/04/20 09:57:21;;;;;;;7.77;3.33;;;;;;;12.75;47.88;95889.25;4997461;28;20213;-67
2022/04/20 10:00:08;;;;;;;6.43;3.30;;;;;;;12.80;45.52;95889.47;4996646;28;20211;-68
2022/04/20 10:02:44;;;;;;;6.93;3.07;;;;;;;13.07;46.52;95892.03;4995157;28;20202;-67
2022/04/20 10:05:10;;;;;;;10.10;3.03;;;;;;;12.04;48.64;95896.00;4995804;28;20198;-67
2022/04/20 10:07:37;;;;;;;6.10;3.70;;;;;;;12.34;48.28;95885.00;4996190;28;20226;-68
2022/04/20 10:10:04;;;;;;;7.07;3.40;;;;;;;12.65;47.94;95896.72;4996441;28;20827;-68
2022/04/20 10:12:32;;;;;;;8.10;3.20;;;;;;;12.71;47.49;95890.66;4995909;28;20199;-67
2022/04/20 10:17:49;;;;;;;6.33;3.50;;;;;;;13.26;48.41;95879.84;4995639;28;20286;-67
2022/04/20 10:20:16;;;;;;;4.63;2.50;;;;;;;12.45;47.08;95887.91;4996555;28;21204;-68
2022/04/20 10:22:44;;;;;;;6.30;3.50;;;;;;;12.98;46.32;95881.81;4996085;28;20300;-67
2022/04/20 10:25:12;;;;;;;6.27;3.33;;;;;;;13.31;43.49;95882.69;4996500;28;20234;-67
2022/04/20 10:27:51;;;;;;;7.27;3.80;;;;;;;13.29;44.57;95876.78;4995593;28;20714;-67
2022/04/20 10:30:22;;;;;;;4.83;3.00;;;;;;;13.39;46.96;95870.09;4996463;28;20213;-67
2022/04/20 10:32:53;;;;;;;4.90;3.00;;;;;;;13.82;49.56;95858.84;4995245;28;20210;-67
2022/04/20 10:35:21;;;;;;;6.50;3.23;;;;;;;13.77;47.83;95861.31;4996267;28;20223;-68
2022/04/20 10:38:10;;;;;;;7.83;3.90;;;;;;;13.95;46.08;95858.03;4996147;28;20317;-68
2022/04/20 10:40:55;;;;;;;5.82;3.60;;;;;;;14.09;46.19;95856.00;4996309;28;20203;-68
2022/04/20 10:43:23;;;;;;;9.97;3.50;;;;;;;13.98;48.24;95859.22;4995535;28;20206;-67
2022/04/20 10:46:05;;;;;;;9.05;3.17;;;;;;;13.98;45.93;95856.59;4996429;28;20205;-67
2022/04/20 10:48:55;;;;;;;6.60;3.85;;;;;;;14.02;44.13;95851.69;4995320;28;20230;-68
2022/04/20 10:51:24;;;;;;;6.40;3.83;;;;;;;13.44;45.42;95855.22;4995667;28;20225;-68
2022/04/20 10:53:52;;;;;;;7.20;3.77;;;;;;;13.42;45.43;95849.31;4995387;28;20281;-68
2022/04/20 10:56:21;;;;;;;8.17;3.70;;;;;;;14.21;47.43;95845.56;4995328;28;20207;-67
2022/04/20 10:59:08;;;;;;;6.53;3.53;;;;;;;14.22;48.63;95850.66;4994362;28;20215;-68
2022/04/20 11:02:06;;;;;;;7.47;3.63;;;;;;;14.34;44.64;95841.03;4996193;28;20203;-68
2022/04/20 11:04:37;;;;;;;6.17;3.67;;;;;;;14.24;45.40;95843.31;4995048;28;20251;-68
2022/04/20 11:07:30;;;;;;;6.03;3.58;;;;;;;14.75;45.14;95847.59;4995866;28;20584;-68
2022/04/20 11:10:06;;;;;;;8.25;3.70;;;;;;;14.86;41.92;95835.50;4985399;28;20218;-68
2022/04/20 11:18:39;;;;;;;6.80;3.92;;;;;;;14.68;42.82;95833.53;4995285;28;20245;-68
2022/04/20 11:21:23;;;;;;;8.68;3.63;;;;;;;15.19;45.92;95818.34;4994200;28;20249;-68
2022/04/20 11:23:51;;;;;;;5.57;3.60;;;;;;;14.50;43.75;95832.63;4992974;28;21115;-68
2022/04/20 11:26:20;;;;;;;7.13;3.88;;;;;;;14.47;46.25;95817.13;4996083;28;21733;-68
2022/04/20 11:28:47;;;;;;;6.40;3.90;;;;;;;14.46;44.60;95812.03;4994587;28;20733;-68
2022/04/20 11:31:14;;;;;;;6.23;3.87;;;;;;;14.73;41.60;95809.06;4991134;28;20222;-68
2022/04/20 11:33:40;;;;;;;6.45;3.33;;;;;;;15.13;42.60;95808.56;4993313;28;20199;-68
2022/04/20 11:36:07;;;;;;;13.23;4.00;;;;;;;14.86;41.97;95814.28;4994234;28;20202;-68
2022/04/20 11:38:38;;;;;;;7.07;3.72;;;;;;;15.23;44.36;95808.94;4992984;28;20231;-68
2022/04/20 11:41:05;;;;;;;10.95;3.47;;;;;;;15.51;45.07;95804.03;4993876;28;20234;-68
2022/04/20 11:43:32;;;;;;;6.50;3.58;;;;;;;15.29;43.65;95803.59;4993872;28;20299;-68
2022/04/20 11:46:00;;;;;;;7.47;3.97;;;;;;;15.13;44.94;95803.25;4995192;28;20194;-67
2022/04/20 11:48:27;;;;;;;6.53;3.83;;;;;;;15.43;41.34;95804.31;4995416;28;20727;-68
2022/04/20 11:50:57;;;;;;;5.90;3.60;;;;;;;15.43;44.46;95799.81;4994486;28;20301;-68
2022/04/20 11:53:32;;;;;;;6.80;3.80;;;;;;;15.60;41.87;95794.75;4994973;28;20206;-68
2022/04/20 11:55:59;;;;;;;6.85;3.45;;;;;;;15.59;42.84;95783.34;4994765;28;20753;-67
2022/04/20 11:58:26;;;;;;;6.30;3.90;;;;;;;14.98;42.79;95801.94;4995669;28;20223;-67
2022/04/20 12:01:00;;;;;;;6.63;3.80;;;;;;;15.37;41.92;95786.59;4996379;28;20206;-67
2022/04/20 12:03:30;;;;;;;10.80;4.05;;;;;;;15.43;41.52;95780.41;4996848;28;20202;-67
2022/04/20 12:06:01;;;;;;;5.32;3.63;;;;;;;15.84;41.64;95771.59;4996908;28;20206;-68
2022/04/20 12:08:27;;;;;;;3.92;3.22;;;;;;;15.72;41.84;95774.41;4996365;28;20934;-68
2022/04/20 12:10:54;;;;;;;6.75;3.63;;;;;;;15.77;38.58;95775.41;4995982;28;20227;-68
2022/04/20 12:13:28;;;;;;;6.15;4.00;;;;;;;16.07;41.26;95779.75;4996381;28;20199;-68
2022/04/20 12:16:07;;;;;;;6.82;3.92;;;;;;;16.66;42.50;95769.22;4994900;28;20368;-68